Reeds, Missouri
Current Conditions -  °F | °C
As of 8:15 PM on Saturday 22 Nov 2014 (Local Time) from KHFJ Reporting Station
Clear Clear  
Wind Chill: 52°   Ceiling: Unl
Heat Index: 52°   Visibility: 10mi
Dew Point: 50°   Wind: 9mph
Humidity: 94%   Direction: 150°SSE
Pressure: 29.83"   Gusts: NA
Location:  37.12°N, 94.17°W
Report Text: KHFJ 230215Z AUTO 15008KT 10SM CLR 11/10 A2983 RMK AO2
Loading
Personal Weather Stations






























Interactive Weather Map New forecast layout! Learn more

10-Day Weather Forecast

Advertisements
Track Severe Weather on mobile